sensor_id;sensor_type;location;lat;lon;timestamp;pressure;altitude;pressure_sealevel;temperature;humidity
27202;BME280;14717;46.924;15.474;2023-04-27T00:01:29;98047.88;;;7.45;81.93
27202;BME280;14717;46.924;15.474;2023-04-27T00:03:55;98049.06;;;7.59;81.60
27202;BME280;14717;46.924;15.474;2023-04-27T00:06:21;98044.91;;;7.57;81.76
27202;BME280;14717;46.924;15.474;2023-04-27T00:08:46;98043.00;;;7.62;81.10
27202;BME280;14717;46.924;15.474;2023-04-27T00:11:12;98039.63;;;7.45;81.27
27202;BME280;14717;46.924;15.474;2023-04-27T00:13:37;98046.16;;;7.29;82.06
27202;BME280;14717;46.924;15.474;2023-04-27T00:16:02;98040.41;;;7.31;83.19
27202;BME280;14717;46.924;15.474;2023-04-27T00:18:29;98045.41;;;7.44;82.09
27202;BME280;14717;46.924;15.474;2023-04-27T00:20:55;98043.50;;;7.49;82.05
27202;BME280;14717;46.924;15.474;2023-04-27T00:23:21;98037.66;;;7.36;81.34
27202;BME280;14717;46.924;15.474;2023-04-27T00:25:46;98040.59;;;7.19;82.61
27202;BME280;14717;46.924;15.474;2023-04-27T00:28:11;98040.59;;;7.15;82.27
27202;BME280;14717;46.924;15.474;2023-04-27T00:30:37;98036.75;;;7.16;83.25
27202;BME280;14717;46.924;15.474;2023-04-27T00:33:02;98035.13;;;7.24;82.27
27202;BME280;14717;46.924;15.474;2023-04-27T00:35:28;98032.72;;;7.33;81.96
27202;BME280;14717;46.924;15.474;2023-04-27T00:37:53;98042.31;;;7.25;81.24
27202;BME280;14717;46.924;15.474;2023-04-27T00:40:19;98035.41;;;7.18;82.99
27202;BME280;14717;46.924;15.474;2023-04-27T00:42:45;98036.19;;;7.09;83.16
27202;BME280;14717;46.924;15.474;2023-04-27T00:45:11;98035.06;;;7.10;83.17
27202;BME280;14717;46.924;15.474;2023-04-27T00:47:37;98033.69;;;7.07;83.65
27202;BME280;14717;46.924;15.474;2023-04-27T00:50:03;98038.41;;;7.12;82.44
27202;BME280;14717;46.924;15.474;2023-04-27T00:52:33;98032.38;;;7.19;82.33
27202;BME280;14717;46.924;15.474;2023-04-27T00:55:01;98028.59;;;7.30;82.83
27202;BME280;14717;46.924;15.474;2023-04-27T00:57:28;98030.28;;;7.36;81.90
27202;BME280;14717;46.924;15.474;2023-04-27T00:59:53;98029.13;;;7.32;82.04
27202;BME280;14717;46.924;15.474;2023-04-27T01:02:19;98038.94;;;7.14;82.66
27202;BME280;14717;46.924;15.474;2023-04-27T01:04:44;98040.53;;;7.05;83.91
27202;BME280;14717;46.924;15.474;2023-04-27T01:07:10;98036.69;;;7.06;83.54
27202;BME280;14717;46.924;15.474;2023-04-27T01:09:35;98050.56;;;7.30;83.25
27202;BME280;14717;46.924;15.474;2023-04-27T01:12:00;98045.13;;;7.40;82.11
27202;BME280;14717;46.924;15.474;2023-04-27T01:14:27;98041.53;;;7.35;81.82
27202;BME280;14717;46.924;15.474;2023-04-27T01:16:52;98045.03;;;7.25;82.43
27202;BME280;14717;46.924;15.474;2023-04-27T01:19:18;98040.41;;;7.31;82.68
27202;BME280;14717;46.924;15.474;2023-04-27T01:21:43;98043.47;;;7.44;82.72
27202;BME280;14717;46.924;15.474;2023-04-27T01:24:09;98045.19;;;7.60;82.79
27202;BME280;14717;46.924;15.474;2023-04-27T01:26:34;98051.88;;;7.74;82.90
27202;BME280;14717;46.924;15.474;2023-04-27T01:29:00;98053.50;;;7.80;82.51
27202;BME280;14717;46.924;15.474;2023-04-27T01:31:26;98053.53;;;7.85;82.37
27202;BME280;14717;46.924;15.474;2023-04-27T01:33:52;98060.16;;;7.89;81.92
27202;BME280;14717;46.924;15.474;2023-04-27T01:36:17;98052.41;;;7.76;81.54
27202;BME280;14717;46.924;15.474;2023-04-27T01:38:42;98057.34;;;7.74;82.18
27202;BME280;14717;46.924;15.474;2023-04-27T01:41:08;98055.47;;;7.89;82.35
27202;BME280;14717;46.924;15.474;2023-04-27T01:43:34;98059.00;;;7.75;81.74
27202;BME280;14717;46.924;15.474;2023-04-27T01:46:07;98064.50;;;7.75;82.96
27202;BME280;14717;46.924;15.474;2023-04-27T01:48:33;98065.03;;;7.77;82.15
27202;BME280;14717;46.924;15.474;2023-04-27T01:50:58;98068.06;;;7.75;82.96
27202;BME280;14717;46.924;15.474;2023-04-27T01:53:24;98067.75;;;7.67;82.23
27202;BME280;14717;46.924;15.474;2023-04-27T01:55:49;98061.44;;;7.62;82.32
27202;BME280;14717;46.924;15.474;2023-04-27T01:58:15;98054.81;;;7.53;83.06
27202;BME280;14717;46.924;15.474;2023-04-27T02:00:40;98055.34;;;7.50;83.93
27202;BME280;14717;46.924;15.474;2023-04-27T02:03:05;98062.75;;;7.54;83.71
27202;BME280;14717;46.924;15.474;2023-04-27T02:05:31;98069.09;;;7.55;84.43
27202;BME280;14717;46.924;15.474;2023-04-27T02:07:56;98066.09;;;7.56;84.08
27202;BME280;14717;46.924;15.474;2023-04-27T02:10:22;98062.22;;;7.57;85.34
27202;BME280;14717;46.924;15.474;2023-04-27T02:12:47;98070.50;;;7.62;84.70
27202;BME280;14717;46.924;15.474;2023-04-27T02:15:13;98068.84;;;7.61;83.49
27202;BME280;14717;46.924;15.474;2023-04-27T02:17:38;98063.06;;;7.58;84.32
27202;BME280;14717;46.924;15.474;2023-04-27T02:20:05;98066.63;;;7.53;85.17
27202;BME280;14717;46.924;15.474;2023-04-27T02:22:31;98077.06;;;7.56;85.45
27202;BME280;14717;46.924;15.474;2023-04-27T02:24:58;98078.53;;;7.78;84.78
27202;BME280;14717;46.924;15.474;2023-04-27T02:27:23;98075.28;;;7.96;84.05
27202;BME280;14717;46.924;15.474;2023-04-27T02:29:48;98076.88;;;7.77;84.32
27202;BME280;14717;46.924;15.474;2023-04-27T02:32:14;98075.69;;;7.59;84.85
27202;BME280;14717;46.924;15.474;2023-04-27T02:34:39;98069.94;;;7.65;86.31
27202;BME280;14717;46.924;15.474;2023-04-27T02:37:05;98075.25;;;7.81;84.41
27202;BME280;14717;46.924;15.474;2023-04-27T02:39:31;98085.44;;;7.91;83.72
27202;BME280;14717;46.924;15.474;2023-04-27T02:41:56;98088.75;;;7.93;83.91
27202;BME280;14717;46.924;15.474;2023-04-27T02:44:21;98084.09;;;8.03;84.04
27202;BME280;14717;46.924;15.474;2023-04-27T02:46:47;98096.22;;;8.07;83.90
27202;BME280;14717;46.924;15.474;2023-04-27T02:49:12;98081.41;;;8.13;85.12
27202;BME280;14717;46.924;15.474;2023-04-27T02:51:37;98080.88;;;8.16;86.02
27202;BME280;14717;46.924;15.474;2023-04-27T02:54:03;98078.66;;;8.13;86.07
27202;BME280;14717;46.924;15.474;2023-04-27T02:56:28;98073.66;;;8.10;86.81
27202;BME280;14717;46.924;15.474;2023-04-27T02:58:54;98063.75;;;7.99;86.20
27202;BME280;14717;46.924;15.474;2023-04-27T03:01:20;98072.53;;;7.96;86.08
27202;BME280;14717;46.924;15.474;2023-04-27T03:03:46;98070.31;;;7.88;86.99
27202;BME280;14717;46.924;15.474;2023-04-27T03:06:14;98077.19;;;7.86;86.93
27202;BME280;14717;46.924;15.474;2023-04-27T03:08:40;98083.78;;;7.85;87.30
27202;BME280;14717;46.924;15.474;2023-04-27T03:11:05;98079.38;;;7.84;87.50
27202;BME280;14717;46.924;15.474;2023-04-27T03:13:30;98084.31;;;7.82;87.80
27202;BME280;14717;46.924;15.474;2023-04-27T03:16:02;98082.66;;;7.76;86.94
27202;BME280;14717;46.924;15.474;2023-04-27T03:18:28;98082.13;;;7.79;87.50
27202;BME280;14717;46.924;15.474;2023-04-27T03:20:53;98077.72;;;7.78;86.88
27202;BME280;14717;46.924;15.474;2023-04-27T03:23:18;98083.50;;;7.81;86.03
27202;BME280;14717;46.924;15.474;2023-04-27T03:25:44;98086.53;;;7.85;86.32
27202;BME280;14717;46.924;15.474;2023-04-27T03:28:09;98089.81;;;7.82;86.21
27202;BME280;14717;46.924;15.474;2023-04-27T03:30:38;98088.16;;;7.76;85.94
27202;BME280;14717;46.924;15.474;2023-04-27T03:33:03;98098.53;;;7.59;85.97
27202;BME280;14717;46.924;15.474;2023-04-27T03:35:28;98091.53;;;7.37;87.24
27202;BME280;14717;46.924;15.474;2023-04-27T03:37:54;98096.19;;;7.31;87.30
27202;BME280;14717;46.924;15.474;2023-04-27T03:40:19;98101.69;;;7.31;87.00
27202;BME280;14717;46.924;15.474;2023-04-27T03:42:46;98104.41;;;7.26;86.63
27202;BME280;14717;46.924;15.474;2023-04-27T03:45:11;98110.97;;;7.20;86.87
27202;BME280;14717;46.924;15.474;2023-04-27T03:47:36;98109.22;;;7.10;88.79
27202;BME280;14717;46.924;15.474;2023-04-27T03:50:02;98117.47;;;7.10;89.46
27202;BME280;14717;46.924;15.474;2023-04-27T03:52:28;98111.47;;;7.18;89.59
27202;BME280;14717;46.924;15.474;2023-04-27T03:54:53;98108.25;;;7.25;89.33
27202;BME280;14717;46.924;15.474;2023-04-27T03:57:19;98111.47;;;7.18;89.50
27202;BME280;14717;46.924;15.474;2023-04-27T03:59:44;98101.63;;;7.21;89.06
27202;BME280;14717;46.924;15.474;2023-04-27T04:02:10;98116.50;;;7.30;90.07
27202;BME280;14717;46.924;15.474;2023-04-27T04:04:35;98110.50;;;7.33;89.63
27202;BME280;14717;46.924;15.474;2023-04-27T04:07:01;98107.72;;;7.28;89.46
27202;BME280;14717;46.924;15.474;2023-04-27T04:09:26;98109.34;;;7.29;89.04
27202;BME280;14717;46.924;15.474;2023-04-27T04:11:51;98109.97;;;7.36;89.33
27202;BME280;14717;46.924;15.474;2023-04-27T04:14:17;98109.69;;;7.38;88.67
27202;BME280;14717;46.924;15.474;2023-04-27T04:16:42;98113.28;;;7.43;89.74
27202;BME280;14717;46.924;15.474;2023-04-27T04:19:07;98105.31;;;7.42;89.96
27202;BME280;14717;46.924;15.474;2023-04-27T04:21:33;98111.66;;;7.52;88.26
27202;BME280;14717;46.924;15.474;2023-04-27T04:23:58;98108.41;;;7.55;88.23
27202;BME280;14717;46.924;15.474;2023-04-27T04:26:24;98105.66;;;7.60;86.63
27202;BME280;14717;46.924;15.474;2023-04-27T04:28:49;98115.31;;;7.63;85.96
27202;BME280;14717;46.924;15.474;2023-04-27T04:31:14;98110.09;;;7.66;87.43
27202;BME280;14717;46.924;15.474;2023-04-27T04:33:42;98115.59;;;7.66;86.88
27202;BME280;14717;46.924;15.474;2023-04-27T04:36:07;98113.94;;;7.65;87.60
27202;BME280;14717;46.924;15.474;2023-04-27T04:38:33;98116.13;;;7.63;86.79
27202;BME280;14717;46.924;15.474;2023-04-27T04:40:58;98118.09;;;7.67;87.43
27202;BME280;14717;46.924;15.474;2023-04-27T04:43:24;98109.78;;;7.58;87.76
27202;BME280;14717;46.924;15.474;2023-04-27T04:45:49;98116.63;;;7.50;88.38
27202;BME280;14717;46.924;15.474;2023-04-27T04:48:15;98114.41;;;7.52;89.25
27202;BME280;14717;46.924;15.474;2023-04-27T04:50:40;98124.59;;;7.52;89.88
27202;BME280;14717;46.924;15.474;2023-04-27T04:53:06;98125.16;;;7.54;90.86
27202;BME280;14717;46.924;15.474;2023-04-27T04:55:32;98118.00;;;7.48;91.40
27202;BME280;14717;46.924;15.474;2023-04-27T04:57:57;98133.09;;;7.50;91.24
27202;BME280;14717;46.924;15.474;2023-04-27T05:00:22;98131.44;;;7.49;91.60
27202;BME280;14717;46.924;15.474;2023-04-27T05:02:48;98123.75;;;7.46;91.90
27202;BME280;14717;46.924;15.474;2023-04-27T05:05:13;98127.03;;;7.43;91.57
27202;BME280;14717;46.924;15.474;2023-04-27T05:07:39;98130.88;;;7.47;91.78
27202;BME280;14717;46.924;15.474;2023-04-27T05:10:04;98130.06;;;7.47;91.84
27202;BME280;14717;46.924;15.474;2023-04-27T05:12:30;98129.31;;;7.56;91.55
27202;BME280;14717;46.924;15.474;2023-04-27T05:14:55;98123.94;;;7.86;91.74
27202;BME280;14717;46.924;15.474;2023-04-27T05:17:21;98128.91;;;7.89;90.36
27202;BME280;14717;46.924;15.474;2023-04-27T05:19:46;98132.16;;;7.76;90.16
27202;BME280;14717;46.924;15.474;2023-04-27T05:22:11;98140.19;;;7.87;91.23
27202;BME280;14717;46.924;15.474;2023-04-27T05:24:37;98150.06;;;7.88;90.49
27202;BME280;14717;46.924;15.474;2023-04-27T05:27:02;98143.75;;;7.93;90.86
27202;BME280;14717;46.924;15.474;2023-04-27T05:29:28;98153.72;;;8.04;91.46
27202;BME280;14717;46.924;15.474;2023-04-27T05:31:53;98151.53;;;8.05;90.20
27202;BME280;14717;46.924;15.474;2023-04-27T05:34:19;98155.34;;;8.00;89.99
27202;BME280;14717;46.924;15.474;2023-04-27T05:36:44;98153.19;;;8.11;90.31
27202;BME280;14717;46.924;15.474;2023-04-27T05:39:13;98159.91;;;8.35;89.37
27202;BME280;14717;46.924;15.474;2023-04-27T05:41:38;98149.19;;;8.53;87.47
27202;BME280;14717;46.924;15.474;2023-04-27T05:44:04;98146.72;;;8.72;86.90
27202;BME280;14717;46.924;15.474;2023-04-27T05:46:30;98157.75;;;8.77;85.44
27202;BME280;14717;46.924;15.474;2023-04-27T05:48:55;98157.72;;;8.57;84.95
27202;BME280;14717;46.924;15.474;2023-04-27T05:51:20;98161.03;;;8.59;84.78
27202;BME280;14717;46.924;15.474;2023-04-27T05:53:46;98151.97;;;8.58;85.31
27202;BME280;14717;46.924;15.474;2023-04-27T05:56:11;98158.28;;;8.69;86.15
27202;BME280;14717;46.924;15.474;2023-04-27T05:58:37;98161.03;;;8.64;83.93
27202;BME280;14717;46.924;15.474;2023-04-27T06:01:02;98160.50;;;8.62;83.32
27202;BME280;14717;46.924;15.474;2023-04-27T06:03:28;98166.28;;;8.75;82.66
27202;BME280;14717;46.924;15.474;2023-04-27T06:05:58;98156.13;;;9.10;81.90
27202;BME280;14717;46.924;15.474;2023-04-27T06:08:23;98166.56;;;9.18;79.48
27202;BME280;14717;46.924;15.474;2023-04-27T06:10:49;98167.41;;;9.19;79.31
27202;BME280;14717;46.924;15.474;2023-04-27T06:13:15;98166.84;;;9.32;78.99
27202;BME280;14717;46.924;15.474;2023-04-27T06:15:41;98160.22;;;9.37;77.38
27202;BME280;14717;46.924;15.474;2023-04-27T06:18:06;98162.94;;;9.52;75.91
27202;BME280;14717;46.924;15.474;2023-04-27T06:20:32;98168.69;;;9.75;76.83
27202;BME280;14717;46.924;15.474;2023-04-27T06:22:58;98165.41;;;9.64;71.92
27202;BME280;14717;46.924;15.474;2023-04-27T06:25:24;98180.28;;;9.68;71.94
27202;BME280;14717;46.924;15.474;2023-04-27T06:27:53;98175.31;;;9.79;68.86
27202;BME280;14717;46.924;15.474;2023-04-27T06:30:18;98179.41;;;9.97;67.83
27202;BME280;14717;46.924;15.474;2023-04-27T06:32:44;98184.59;;;10.13;65.64
27202;BME280;14717;46.924;15.474;2023-04-27T06:35:10;98178.44;;;10.31;68.01
27202;BME280;14717;46.924;15.474;2023-04-27T06:37:35;98174.94;;;10.68;66.88
27202;BME280;14717;46.924;15.474;2023-04-27T06:40:00;98166.44;;;10.98;64.69
27202;BME280;14717;46.924;15.474;2023-04-27T06:42:26;98168.78;;;10.81;60.62
27202;BME280;14717;46.924;15.474;2023-04-27T06:44:54;98175.81;;;10.97;61.89
27202;BME280;14717;46.924;15.474;2023-04-27T06:47:20;98174.06;;;11.11;61.39
27202;BME280;14717;46.924;15.474;2023-04-27T06:49:46;98172.13;;;10.73;60.91
27202;BME280;14717;46.924;15.474;2023-04-27T06:52:12;98166.59;;;11.11;61.25
27202;BME280;14717;46.924;15.474;2023-04-27T06:54:37;98172.09;;;11.16;61.06
27202;BME280;14717;46.924;15.474;2023-04-27T06:57:02;98186.03;;;11.02;57.27
27202;BME280;14717;46.924;15.474;2023-04-27T06:59:28;98177.53;;;10.93;58.27
27202;BME280;14717;46.924;15.474;2023-04-27T07:01:53;98171.78;;;10.85;61.26
27202;BME280;14717;46.924;15.474;2023-04-27T07:04:18;98179.69;;;11.01;53.27
27202;BME280;14717;46.924;15.474;2023-04-27T07:06:44;98181.69;;;11.24;55.67
27202;BME280;14717;46.924;15.474;2023-04-27T07:09:10;98180.81;;;11.61;54.09
27202;BME280;14717;46.924;15.474;2023-04-27T07:11:35;98172.72;;;11.37;54.81
27202;BME280;14717;46.924;15.474;2023-04-27T07:14:00;98170.56;;;11.67;52.31
27202;BME280;14717;46.924;15.474;2023-04-27T07:16:26;98168.31;;;11.92;52.14
27202;BME280;14717;46.924;15.474;2023-04-27T07:18:51;98181.00;;;11.70;51.44
27202;BME280;14717;46.924;15.474;2023-04-27T07:21:16;98185.78;;;11.31;50.96
27202;BME280;14717;46.924;15.474;2023-04-27T07:23:42;98183.78;;;11.37;51.45
27202;BME280;14717;46.924;15.474;2023-04-27T07:26:08;98180.63;;;11.81;51.07
27202;BME280;14717;46.924;15.474;2023-04-27T07:28:34;98187.22;;;11.85;51.58
27202;BME280;14717;46.924;15.474;2023-04-27T07:31:00;98185.69;;;12.21;50.36
27202;BME280;14717;46.924;15.474;2023-04-27T07:33:26;98169.31;;;12.47;48.20
27202;BME280;14717;46.924;15.474;2023-04-27T07:35:52;98173.34;;;12.13;47.83
27202;BME280;14717;46.924;15.474;2023-04-27T07:38:18;98164.72;;;12.56;48.43
27202;BME280;14717;46.924;15.474;2023-04-27T07:40:43;98168.00;;;12.81;47.39
27202;BME280;14717;46.924;15.474;2023-04-27T07:43:10;98169.19;;;12.75;45.72
27202;BME280;14717;46.924;15.474;2023-04-27T07:45:36;98171.91;;;12.99;46.54
27202;BME280;14717;46.924;15.474;2023-04-27T07:48:03;98163.34;;;13.14;48.65
27202;BME280;14717;46.924;15.474;2023-04-27T07:50:29;98166.81;;;13.06;46.41
27202;BME280;14717;46.924;15.474;2023-04-27T07:52:56;98158.22;;;13.20;45.33
27202;BME280;14717;46.924;15.474;2023-04-27T07:55:23;98158.50;;;13.37;45.71
27202;BME280;14717;46.924;15.474;2023-04-27T07:57:49;98163.66;;;13.44;45.16
27202;BME280;14717;46.924;15.474;2023-04-27T08:00:14;98161.97;;;13.61;44.89
27202;BME280;14717;46.924;15.474;2023-04-27T08:02:40;98172.78;;;13.13;47.55
27202;BME280;14717;46.924;15.474;2023-04-27T08:05:06;98156.53;;;13.24;44.99
27202;BME280;14717;46.924;15.474;2023-04-27T08:07:33;98156.81;;;13.55;45.10
27202;BME280;14717;46.924;15.474;2023-04-27T08:09:58;98156.16;;;13.89;45.78
27202;BME280;14717;46.924;15.474;2023-04-27T08:12:24;98150.63;;;13.26;44.98
27202;BME280;14717;46.924;15.474;2023-04-27T08:14:49;98156.09;;;12.99;46.50
27202;BME280;14717;46.924;15.474;2023-04-27T08:17:14;98161.66;;;13.49;47.14
27202;BME280;14717;46.924;15.474;2023-04-27T08:19:42;98161.19;;;13.74;46.16
27202;BME280;14717;46.924;15.474;2023-04-27T08:22:07;98159.94;;;13.35;45.10
27202;BME280;14717;46.924;15.474;2023-04-27T08:24:32;98156.75;;;13.73;46.11
27202;BME280;14717;46.924;15.474;2023-04-27T08:26:58;98164.16;;;13.64;45.12
27202;BME280;14717;46.924;15.474;2023-04-27T08:29:23;98161.91;;;13.79;45.42
27202;BME280;14717;46.924;15.474;2023-04-27T08:31:48;98164.66;;;14.11;46.03
27202;BME280;14717;46.924;15.474;2023-04-27T08:34:14;98156.19;;;14.43;45.88
27202;BME280;14717;46.924;15.474;2023-04-27T08:36:39;98152.00;;;14.45;44.07
27202;BME280;14717;46.924;15.474;2023-04-27T08:39:05;98151.25;;;14.53;43.72
27202;BME280;14717;46.924;15.474;2023-04-27T08:41:32;98147.09;;;14.64;47.27
27202;BME280;14717;46.924;15.474;2023-04-27T08:43:57;98154.91;;;14.75;44.91
27202;BME280;14717;46.924;15.474;2023-04-27T08:46:23;98152.63;;;14.15;46.18
27202;BME280;14717;46.924;15.474;2023-04-27T08:48:52;98160.09;;;14.68;45.52
27202;BME280;14717;46.924;15.474;2023-04-27T08:51:18;98144.69;;;14.97;44.54
27202;BME280;14717;46.924;15.474;2023-04-27T08:53:50;98144.94;;;15.09;44.49
27202;BME280;14717;46.924;15.474;2023-04-27T08:56:17;98147.84;;;15.04;44.15
27202;BME280;14717;46.924;15.474;2023-04-27T08:58:43;98146.88;;;14.87;44.93
27202;BME280;14717;46.924;15.474;2023-04-27T09:01:08;98143.28;;;14.73;46.81
27202;BME280;14717;46.924;15.474;2023-04-27T09:03:34;98145.91;;;14.56;46.04
27202;BME280;14717;46.924;15.474;2023-04-27T09:06:01;98127.06;;;14.88;46.64
27202;BME280;14717;46.924;15.474;2023-04-27T09:08:27;98135.94;;;14.90;43.97
27202;BME280;14717;46.924;15.474;2023-04-27T09:10:53;98134.63;;;15.23;46.08
27202;BME280;14717;46.924;15.474;2023-04-27T09:13:21;98129.47;;;14.82;46.03
27202;BME280;14717;46.924;15.474;2023-04-27T09:15:48;98132.91;;;14.52;45.61
27202;BME280;14717;46.924;15.474;2023-04-27T09:18:21;98134.59;;;14.40;45.32
27202;BME280;14717;46.924;15.474;2023-04-27T09:20:51;98123.78;;;14.87;47.20
27202;BME280;14717;46.924;15.474;2023-04-27T09:23:34;98135.72;;;15.00;46.29
27202;BME280;14717;46.924;15.474;2023-04-27T09:26:05;98124.75;;;15.17;47.83
27202;BME280;14717;46.924;15.474;2023-04-27T09:28:37;98127.19;;;15.62;44.93
27202;BME280;14717;46.924;15.474;2023-04-27T09:31:03;98122.09;;;15.86;44.83
27202;BME280;14717;46.924;15.474;2023-04-27T09:33:31;98114.84;;;15.85;45.60
27202;BME280;14717;46.924;15.474;2023-04-27T09:35:59;98120.47;;;15.93;43.98
27202;BME280;14717;46.924;15.474;2023-04-27T09:38:25;98116.41;;;15.99;43.54
27202;BME280;14717;46.924;15.474;2023-04-27T09:40:50;98115.00;;;15.50;42.88
27202;BME280;14717;46.924;15.474;2023-04-27T09:43:16;98117.34;;;14.99;45.60
27202;BME280;14717;46.924;15.474;2023-04-27T09:45:42;98114.34;;;14.74;44.64
27202;BME280;14717;46.924;15.474;2023-04-27T09:48:08;98110.66;;;15.00;46.88
27202;BME280;14717;46.924;15.474;2023-04-27T09:50:39;98097.97;;;15.51;45.36
27202;BME280;14717;46.924;15.474;2023-04-27T09:53:07;98103.63;;;15.38;45.58
27202;BME280;14717;46.924;15.474;2023-04-27T09:55:40;98096.22;;;15.64;45.31
27202;BME280;14717;46.924;15.474;2023-04-27T10:04:12;98083.75;;;16.30;46.89
27202;BME280;14717;46.924;15.474;2023-04-27T10:07:10;98083.56;;;16.26;44.85
27202;BME280;14717;46.924;15.474;2023-04-27T10:09:46;98079.47;;;16.24;44.98
27202;BME280;14717;46.924;15.474;2023-04-27T10:14:59;98082.78;;;16.43;44.36
27202;BME280;14717;46.924;15.474;2023-04-27T10:17:33;98088.59;;;16.55;43.96
27202;BME280;14717;46.924;15.474;2023-04-27T10:20:05;98089.72;;;16.62;44.06
27202;BME280;14717;46.924;15.474;2023-04-27T10:22:48;98079.53;;;16.58;43.98
27202;BME280;14717;46.924;15.474;2023-04-27T10:25:21;98079.44;;;16.88;42.88
27202;BME280;14717;46.924;15.474;2023-04-27T10:28:13;98076.41;;;16.51;44.29
27202;BME280;14717;46.924;15.474;2023-04-27T10:30:43;98068.22;;;16.71;44.03
27202;BME280;14717;46.924;15.474;2023-04-27T10:33:10;98076.44;;;16.76;44.15
27202;BME280;14717;46.924;15.474;2023-04-27T10:38:16;98069.88;;;16.97;44.08
27202;BME280;14717;46.924;15.474;2023-04-27T10:40:59;98074.50;;;16.76;43.83
27202;BME280;14717;46.924;15.474;2023-04-27T10:43:35;98061.53;;;17.31;43.48
27202;BME280;14717;46.924;15.474;2023-04-27T10:46:11;98057.72;;;17.52;42.28
27202;BME280;14717;46.924;15.474;2023-04-27T10:48:40;98061.59;;;17.68;42.52
27202;BME280;14717;46.924;15.474;2023-04-27T10:51:07;98056.72;;;17.48;41.32
27202;BME280;14717;46.924;15.474;2023-04-27T10:53:36;98059.06;;;17.29;43.03
27202;BME280;14717;46.924;15.474;2023-04-27T10:56:02;98061.38;;;17.10;42.07
27202;BME280;14717;46.924;15.474;2023-04-27T10:58:30;98052.41;;;16.24;44.73
27202;BME280;14717;46.924;15.474;2023-04-27T11:00:56;98045.00;;;16.20;43.88
27202;BME280;14717;46.924;15.474;2023-04-27T11:03:22;98049.69;;;17.00;43.53
27202;BME280;14717;46.924;15.474;2023-04-27T11:05:58;98038.50;;;17.17;43.26
27202;BME280;14717;46.924;15.474;2023-04-27T11:08:24;98038.53;;;17.34;42.42
27202;BME280;14717;46.924;15.474;2023-04-27T11:10:50;98037.66;;;17.42;41.29
27202;BME280;14717;46.924;15.474;2023-04-27T11:13:18;98047.34;;;17.52;40.74
27202;BME280;14717;46.924;15.474;2023-04-27T11:15:54;98048.41;;;17.23;40.90
27202;BME280;14717;46.924;15.474;2023-04-27T11:18:21;98036.50;;;17.51;41.20
27202;BME280;14717;46.924;15.474;2023-04-27T11:20:49;98041.44;;;17.54;40.54
27202;BME280;14717;46.924;15.474;2023-04-27T11:23:25;98039.84;;;17.11;43.46
27202;BME280;14717;46.924;15.474;2023-04-27T11:25:51;98036.25;;;17.19;43.31
27202;BME280;14717;46.924;15.474;2023-04-27T11:28:20;98024.94;;;17.69;41.89
27202;BME280;14717;46.924;15.474;2023-04-27T11:30:47;98028.94;;;17.97;40.98
27202;BME280;14717;46.924;15.474;2023-04-27T11:33:13;98036.44;;;17.76;40.80
27202;BME280;14717;46.924;15.474;2023-04-27T11:35:39;98034.53;;;17.51;40.72
27202;BME280;14717;46.924;15.474;2023-04-27T11:38:04;98043.47;;;16.69;42.28
27202;BME280;14717;46.924;15.474;2023-04-27T11:40:30;98033.94;;;16.54;42.20
27202;BME280;14717;46.924;15.474;2023-04-27T11:42:59;98039.34;;;16.84;42.65
27202;BME280;14717;46.924;15.474;2023-04-27T11:45:28;98032.91;;;17.17;42.57
27202;BME280;14717;46.924;15.474;2023-04-27T11:47:57;98025.84;;;17.90;41.44
27202;BME280;14717;46.924;15.474;2023-04-27T11:50:23;98030.16;;;17.79;41.71
27202;BME280;14717;46.924;15.474;2023-04-27T11:52:52;98036.81;;;18.40;41.97
27202;BME280;14717;46.924;15.474;2023-04-27T11:55:21;98032.44;;;18.51;39.75
27202;BME280;14717;46.924;15.474;2023-04-27T11:57:47;98030.06;;;18.13;41.18
27202;BME280;14717;46.924;15.474;2023-04-27T12:00:13;98036.88;;;17.33;42.07
27202;BME280;14717;46.924;15.474;2023-04-27T12:02:40;98039.13;;;17.48;42.90
27202;BME280;14717;46.924;15.474;2023-04-27T12:05:06;98033.97;;;17.75;40.90
27202;BME280;14717;46.924;15.474;2023-04-27T12:07:33;98033.19;;;17.57;42.64
27202;BME280;14717;46.924;15.474;2023-04-27T12:09:58;98032.91;;;17.17;42.19
27202;BME280;14717;46.924;15.474;2023-04-27T12:12:23;98033.41;;;17.44;42.18
27202;BME280;14717;46.924;15.474;2023-04-27T12:14:50;98044.75;;;16.97;42.08
27202;BME280;14717;46.924;15.474;2023-04-27T12:17:16;98043.97;;;17.30;43.54
27202;BME280;14717;46.924;15.474;2023-04-27T12:19:42;98031.59;;;17.40;42.30
27202;BME280;14717;46.924;15.474;2023-04-27T12:22:07;98025.91;;;17.19;42.47
27202;BME280;14717;46.924;15.474;2023-04-27T12:24:33;98030.66;;;17.27;42.62
27202;BME280;14717;46.924;15.474;2023-04-27T12:26:59;98032.38;;;17.57;42.23
27202;BME280;14717;46.924;15.474;2023-04-27T12:29:25;98025.78;;;17.70;41.11
27202;BME280;14717;46.924;15.474;2023-04-27T12:31:51;98018.13;;;17.87;43.05
27202;BME280;14717;46.924;15.474;2023-04-27T12:34:17;98022.00;;;18.03;42.21
27202;BME280;14717;46.924;15.474;2023-04-27T12:36:42;98015.47;;;17.90;41.08
27202;BME280;14717;46.924;15.474;2023-04-27T12:39:18;98015.94;;;17.92;41.89
27202;BME280;14717;46.924;15.474;2023-04-27T12:41:45;98016.16;;;18.25;41.12
27202;BME280;14717;46.924;15.474;2023-04-27T12:44:12;98011.81;;;18.35;41.69
27202;BME280;14717;46.924;15.474;2023-04-27T12:46:39;98005.88;;;18.77;41.61
27202;BME280;14717;46.924;15.474;2023-04-27T12:49:04;98007.88;;;17.62;42.63
27202;BME280;14717;46.924;15.474;2023-04-27T12:51:33;98024.38;;;17.13;43.01
27202;BME280;14717;46.924;15.474;2023-04-27T12:53:59;98015.38;;;17.25;44.61
27202;BME280;14717;46.924;15.474;2023-04-27T12:56:26;98011.94;;;17.73;43.50
27202;BME280;14717;46.924;15.474;2023-04-27T12:58:52;98003.75;;;17.97;41.53
27202;BME280;14717;46.924;15.474;2023-04-27T13:01:17;98015.63;;;17.57;41.26
27202;BME280;14717;46.924;15.474;2023-04-27T13:03:46;98009.78;;;17.79;41.38